Terminal Aerodrome Forecast
Issued by NWS

Home | Current Version | Previous Version | Text Only | Print | Product List | Glossary On
Versions: 1 2 3 4 5 6 7 8 9 10 11 12 13 14 15
000
FTUS46 KMTR 031700
TAFSJC
TAF
KSJC 031730Z 0318/0418 15004KT P6SM FEW020
     FM032000 30012KT P6SM SKC
     FM040400 30007KT P6SM SKC
     FM040900 13005KT P6SM OVC015=

USA.gov is the U.S. government's official web portal to all federal, state and local government web resources and services.